sensor_id;sensor_type;location;lat;lon;timestamp;P1;durP1;ratioP1;P2;durP2;ratioP2
65130;SDS011;51709;54.912;8.316;2022-08-19T00:01:08;8.20;;;6.35;;
65130;SDS011;51709;54.912;8.316;2022-08-19T00:06:29;9.90;;;6.75;;
65130;SDS011;51709;54.912;8.316;2022-08-19T00:11:52;9.48;;;5.90;;
65130;SDS011;51709;54.912;8.316;2022-08-19T00:17:15;14.07;;;6.28;;
65130;SDS011;51709;54.912;8.316;2022-08-19T00:22:37;12.10;;;6.68;;
65130;SDS011;51709;54.912;8.316;2022-08-19T00:27:58;9.88;;;6.72;;
65130;SDS011;51709;54.912;8.316;2022-08-19T00:33:19;9.30;;;6.32;;
65130;SDS011;51709;54.912;8.316;2022-08-19T00:38:40;10.77;;;6.28;;
65130;SDS011;51709;54.912;8.316;2022-08-19T00:49:46;12.05;;;6.97;;
65130;SDS011;51709;54.912;8.316;2022-08-19T00:55:14;11.88;;;6.50;;
65130;SDS011;51709;54.912;8.316;2022-08-19T01:00:38;8.25;;;6.85;;
65130;SDS011;51709;54.912;8.316;2022-08-19T01:05:59;10.80;;;6.60;;
65130;SDS011;51709;54.912;8.316;2022-08-19T01:11:20;14.43;;;6.95;;
65130;SDS011;51709;54.912;8.316;2022-08-19T01:16:42;9.70;;;7.47;;
65130;SDS011;51709;54.912;8.316;2022-08-19T01:27:50;13.25;;;7.10;;
65130;SDS011;51709;54.912;8.316;2022-08-19T01:33:13;13.05;;;9.07;;
65130;SDS011;51709;54.912;8.316;2022-08-19T01:38:35;10.10;;;7.53;;
65130;SDS011;51709;54.912;8.316;2022-08-19T01:44:05;16.00;;;8.38;;
65130;SDS011;51709;54.912;8.316;2022-08-19T01:49:38;11.13;;;7.85;;
65130;SDS011;51709;54.912;8.316;2022-08-19T01:54:59;13.40;;;7.15;;
65130;SDS011;51709;54.912;8.316;2022-08-19T02:00:21;9.82;;;7.20;;
65130;SDS011;51709;54.912;8.316;2022-08-19T02:05:43;13.77;;;8.27;;
65130;SDS011;51709;54.912;8.316;2022-08-19T02:11:06;9.00;;;8.10;;
65130;SDS011;51709;54.912;8.316;2022-08-19T02:16:28;15.23;;;8.88;;
65130;SDS011;51709;54.912;8.316;2022-08-19T02:21:48;12.30;;;8.00;;
65130;SDS011;51709;54.912;8.316;2022-08-19T02:27:09;11.52;;;7.60;;
65130;SDS011;51709;54.912;8.316;2022-08-19T02:32:30;12.40;;;8.77;;
65130;SDS011;51709;54.912;8.316;2022-08-19T02:37:58;13.20;;;8.15;;
65130;SDS011;51709;54.912;8.316;2022-08-19T02:43:37;11.57;;;7.82;;
65130;SDS011;51709;54.912;8.316;2022-08-19T02:49:20;8.65;;;7.32;;
65130;SDS011;51709;54.912;8.316;2022-08-19T02:54:40;12.40;;;7.75;;
65130;SDS011;51709;54.912;8.316;2022-08-19T03:00:03;12.75;;;7.97;;
65130;SDS011;51709;54.912;8.316;2022-08-19T03:05:26;14.18;;;8.85;;
65130;SDS011;51709;54.912;8.316;2022-08-19T03:11:12;11.57;;;7.85;;
65130;SDS011;51709;54.912;8.316;2022-08-19T03:16:39;9.32;;;7.07;;
65130;SDS011;51709;54.912;8.316;2022-08-19T03:22:04;14.70;;;7.88;;
65130;SDS011;51709;54.912;8.316;2022-08-19T03:27:25;11.50;;;7.93;;
65130;SDS011;51709;54.912;8.316;2022-08-19T03:32:54;9.48;;;7.18;;
65130;SDS011;51709;54.912;8.316;2022-08-19T03:38:16;9.75;;;7.80;;
65130;SDS011;51709;54.912;8.316;2022-08-19T03:43:37;13.65;;;7.78;;
65130;SDS011;51709;54.912;8.316;2022-08-19T03:49:00;8.15;;;6.40;;
65130;SDS011;51709;54.912;8.316;2022-08-19T03:54:24;10.05;;;7.70;;
65130;SDS011;51709;54.912;8.316;2022-08-19T03:59:45;12.23;;;7.60;;
65130;SDS011;51709;54.912;8.316;2022-08-19T04:05:06;15.40;;;8.02;;
65130;SDS011;51709;54.912;8.316;2022-08-19T04:10:28;35.25;;;8.05;;
65130;SDS011;51709;54.912;8.316;2022-08-19T04:15:49;19.58;;;12.90;;
65130;SDS011;51709;54.912;8.316;2022-08-19T04:21:14;29.00;;;13.02;;
65130;SDS011;51709;54.912;8.316;2022-08-19T04:26:37;20.27;;;12.50;;
65130;SDS011;51709;54.912;8.316;2022-08-19T04:31:59;19.55;;;12.30;;
65130;SDS011;51709;54.912;8.316;2022-08-19T04:37:29;19.77;;;12.75;;
65130;SDS011;51709;54.912;8.316;2022-08-19T04:42:55;18.23;;;10.98;;
65130;SDS011;51709;54.912;8.316;2022-08-19T04:48:16;11.55;;;8.73;;
65130;SDS011;51709;54.912;8.316;2022-08-19T04:53:46;9.10;;;7.30;;
65130;SDS011;51709;54.912;8.316;2022-08-19T04:59:07;8.07;;;6.30;;
65130;SDS011;51709;54.912;8.316;2022-08-19T05:04:28;16.08;;;6.22;;
65130;SDS011;51709;54.912;8.316;2022-08-19T05:09:51;9.82;;;6.32;;
65130;SDS011;51709;54.912;8.316;2022-08-19T05:15:18;6.10;;;5.53;;
65130;SDS011;51709;54.912;8.316;2022-08-19T05:20:39;7.20;;;5.28;;
65130;SDS011;51709;54.912;8.316;2022-08-19T05:26:19;7.63;;;4.72;;
65130;SDS011;51709;54.912;8.316;2022-08-19T05:31:40;4.95;;;4.10;;
65130;SDS011;51709;54.912;8.316;2022-08-19T05:37:02;4.35;;;3.95;;
65130;SDS011;51709;54.912;8.316;2022-08-19T05:42:23;6.82;;;4.10;;
65130;SDS011;51709;54.912;8.316;2022-08-19T05:47:43;8.15;;;4.78;;
65130;SDS011;51709;54.912;8.316;2022-08-19T05:53:05;4.70;;;3.67;;
65130;SDS011;51709;54.912;8.316;2022-08-19T05:58:26;6.65;;;3.92;;
65130;SDS011;51709;54.912;8.316;2022-08-19T06:03:47;7.65;;;3.53;;
65130;SDS011;51709;54.912;8.316;2022-08-19T06:09:08;5.43;;;2.85;;
65130;SDS011;51709;54.912;8.316;2022-08-19T06:14:30;3.42;;;3.13;;
65130;SDS011;51709;54.912;8.316;2022-08-19T06:19:59;5.85;;;2.72;;
65130;SDS011;51709;54.912;8.316;2022-08-19T06:25:20;3.65;;;2.70;;
65130;SDS011;51709;54.912;8.316;2022-08-19T06:30:40;4.90;;;2.60;;
65130;SDS011;51709;54.912;8.316;2022-08-19T06:36:01;12.80;;;3.08;;
65130;SDS011;51709;54.912;8.316;2022-08-19T06:41:23;2.47;;;2.28;;
65130;SDS011;51709;54.912;8.316;2022-08-19T06:46:45;3.97;;;2.22;;
65130;SDS011;51709;54.912;8.316;2022-08-19T06:52:14;2.60;;;2.35;;
65130;SDS011;51709;54.912;8.316;2022-08-19T06:57:36;2.88;;;2.15;;
65130;SDS011;51709;54.912;8.316;2022-08-19T07:02:56;5.43;;;3.00;;
65130;SDS011;51709;54.912;8.316;2022-08-19T07:08:23;3.58;;;2.10;;
65130;SDS011;51709;54.912;8.316;2022-08-19T07:13:49;2.35;;;1.67;;
65130;SDS011;51709;54.912;8.316;2022-08-19T07:19:13;2.10;;;2.00;;
65130;SDS011;51709;54.912;8.316;2022-08-19T07:24:38;2.28;;;2.08;;
65130;SDS011;51709;54.912;8.316;2022-08-19T07:30:10;3.85;;;2.10;;
65130;SDS011;51709;54.912;8.316;2022-08-19T07:35:32;5.45;;;2.65;;
65130;SDS011;51709;54.912;8.316;2022-08-19T07:40:53;2.10;;;2.00;;
65130;SDS011;51709;54.912;8.316;2022-08-19T07:46:13;2.35;;;2.03;;
65130;SDS011;51709;54.912;8.316;2022-08-19T07:51:34;5.40;;;2.67;;
65130;SDS011;51709;54.912;8.316;2022-08-19T07:56:57;4.00;;;2.00;;
65130;SDS011;51709;54.912;8.316;2022-08-19T08:02:18;2.92;;;2.15;;
65130;SDS011;51709;54.912;8.316;2022-08-19T08:07:39;4.20;;;2.20;;
65130;SDS011;51709;54.912;8.316;2022-08-19T08:13:18;2.58;;;2.00;;
65130;SDS011;51709;54.912;8.316;2022-08-19T08:18:38;3.90;;;2.15;;
65130;SDS011;51709;54.912;8.316;2022-08-19T08:24:02;3.20;;;2.30;;
65130;SDS011;51709;54.912;8.316;2022-08-19T08:29:23;2.42;;;1.83;;
65130;SDS011;51709;54.912;8.316;2022-08-19T08:34:45;2.67;;;1.75;;
65130;SDS011;51709;54.912;8.316;2022-08-19T08:40:23;2.33;;;1.70;;
65130;SDS011;51709;54.912;8.316;2022-08-19T08:45:52;2.55;;;2.35;;
65130;SDS011;51709;54.912;8.316;2022-08-19T08:51:18;4.82;;;1.80;;
65130;SDS011;51709;54.912;8.316;2022-08-19T08:56:43;1.65;;;1.60;;
65130;SDS011;51709;54.912;8.316;2022-08-19T09:02:05;2.05;;;1.88;;
65130;SDS011;51709;54.912;8.316;2022-08-19T09:07:44;2.05;;;1.90;;
65130;SDS011;51709;54.912;8.316;2022-08-19T09:19:02;2.38;;;2.17;;
65130;SDS011;51709;54.912;8.316;2022-08-19T09:24:26;1.85;;;1.60;;
65130;SDS011;51709;54.912;8.316;2022-08-19T09:29:51;4.63;;;1.80;;
65130;SDS011;51709;54.912;8.316;2022-08-19T09:35:14;1.73;;;1.63;;
65130;SDS011;51709;54.912;8.316;2022-08-19T09:40:35;5.55;;;1.90;;
65130;SDS011;51709;54.912;8.316;2022-08-19T09:45:57;5.00;;;1.63;;
65130;SDS011;51709;54.912;8.316;2022-08-19T09:56:30;2.50;;;2.10;;
65130;SDS011;51709;54.912;8.316;2022-08-19T10:01:53;3.97;;;2.20;;
65130;SDS011;51709;54.912;8.316;2022-08-19T10:07:23;2.00;;;1.90;;
65130;SDS011;51709;54.912;8.316;2022-08-19T10:12:55;4.30;;;2.10;;
65130;SDS011;51709;54.912;8.316;2022-08-19T10:18:17;3.30;;;2.25;;
65130;SDS011;51709;54.912;8.316;2022-08-19T10:23:40;2.55;;;2.20;;
65130;SDS011;51709;54.912;8.316;2022-08-19T10:29:05;2.85;;;2.30;;
65130;SDS011;51709;54.912;8.316;2022-08-19T10:34:30;2.50;;;2.40;;
65130;SDS011;51709;54.912;8.316;2022-08-19T10:39:51;9.40;;;2.80;;
65130;SDS011;51709;54.912;8.316;2022-08-19T10:45:12;2.75;;;2.55;;
65130;SDS011;51709;54.912;8.316;2022-08-19T10:50:32;2.58;;;2.38;;
65130;SDS011;51709;54.912;8.316;2022-08-19T10:56:11;2.85;;;2.65;;
65130;SDS011;51709;54.912;8.316;2022-08-19T11:01:51;2.40;;;2.30;;
65130;SDS011;51709;54.912;8.316;2022-08-19T11:07:15;2.67;;;2.38;;
65130;SDS011;51709;54.912;8.316;2022-08-19T11:12:36;2.90;;;2.55;;
65130;SDS011;51709;54.912;8.316;2022-08-19T11:18:02;2.80;;;2.20;;
65130;SDS011;51709;54.912;8.316;2022-08-19T11:23:23;3.00;;;2.40;;
65130;SDS011;51709;54.912;8.316;2022-08-19T11:28:45;3.80;;;2.55;;
65130;SDS011;51709;54.912;8.316;2022-08-19T11:34:06;2.80;;;2.08;;
65130;SDS011;51709;54.912;8.316;2022-08-19T11:39:30;2.97;;;2.78;;
65130;SDS011;51709;54.912;8.316;2022-08-19T11:50:13;2.30;;;2.20;;
65130;SDS011;51709;54.912;8.316;2022-08-19T11:55:36;2.30;;;2.20;;
65130;SDS011;51709;54.912;8.316;2022-08-19T12:01:10;2.72;;;2.63;;
65130;SDS011;51709;54.912;8.316;2022-08-19T12:06:33;4.85;;;2.47;;
65130;SDS011;51709;54.912;8.316;2022-08-19T12:11:54;3.38;;;2.30;;
65130;SDS011;51709;54.912;8.316;2022-08-19T12:17:15;4.60;;;2.58;;
65130;SDS011;51709;54.912;8.316;2022-08-19T12:22:37;3.05;;;1.90;;
65130;SDS011;51709;54.912;8.316;2022-08-19T12:27:58;2.80;;;2.30;;
65130;SDS011;51709;54.912;8.316;2022-08-19T12:33:19;2.20;;;2.10;;
65130;SDS011;51709;54.912;8.316;2022-08-19T12:38:44;3.95;;;2.25;;
65130;SDS011;51709;54.912;8.316;2022-08-19T12:44:05;2.75;;;2.35;;
65130;SDS011;51709;54.912;8.316;2022-08-19T12:49:28;2.28;;;2.17;;
65130;SDS011;51709;54.912;8.316;2022-08-19T12:55:10;2.53;;;2.28;;
65130;SDS011;51709;54.912;8.316;2022-08-19T13:00:31;2.33;;;2.13;;
65130;SDS011;51709;54.912;8.316;2022-08-19T13:05:53;2.25;;;2.15;;
65130;SDS011;51709;54.912;8.316;2022-08-19T13:11:16;3.65;;;2.38;;
65130;SDS011;51709;54.912;8.316;2022-08-19T13:16:39;2.13;;;2.03;;
65130;SDS011;51709;54.912;8.316;2022-08-19T13:22:00;1.75;;;1.65;;
65130;SDS011;51709;54.912;8.316;2022-08-19T13:27:21;2.08;;;1.98;;
65130;SDS011;51709;54.912;8.316;2022-08-19T13:32:42;2.20;;;2.00;;
65130;SDS011;51709;54.912;8.316;2022-08-19T13:38:21;2.20;;;2.10;;
65130;SDS011;51709;54.912;8.316;2022-08-19T13:43:42;1.80;;;1.80;;
65130;SDS011;51709;54.912;8.316;2022-08-19T13:49:02;2.42;;;2.08;;
65130;SDS011;51709;54.912;8.316;2022-08-19T13:54:24;2.53;;;2.28;;
65130;SDS011;51709;54.912;8.316;2022-08-19T13:59:45;2.92;;;2.45;;
65130;SDS011;51709;54.912;8.316;2022-08-19T14:05:06;2.08;;;1.75;;
65130;SDS011;51709;54.912;8.316;2022-08-19T14:10:29;5.03;;;2.20;;
65130;SDS011;51709;54.912;8.316;2022-08-19T14:15:51;2.40;;;1.88;;
65130;SDS011;51709;54.912;8.316;2022-08-19T14:21:16;1.75;;;1.65;;
65130;SDS011;51709;54.912;8.316;2022-08-19T14:26:40;2.72;;;2.10;;
65130;SDS011;51709;54.912;8.316;2022-08-19T14:32:01;1.67;;;1.58;;
65130;SDS011;51709;54.912;8.316;2022-08-19T14:37:22;5.95;;;1.77;;
65130;SDS011;51709;54.912;8.316;2022-08-19T14:42:44;2.15;;;1.98;;
65130;SDS011;51709;54.912;8.316;2022-08-19T14:48:06;3.25;;;2.45;;
65130;SDS011;51709;54.912;8.316;2022-08-19T14:53:38;2.40;;;1.88;;
65130;SDS011;51709;54.912;8.316;2022-08-19T14:58:58;2.85;;;2.00;;
65130;SDS011;51709;54.912;8.316;2022-08-19T15:04:21;3.47;;;2.60;;
65130;SDS011;51709;54.912;8.316;2022-08-19T15:09:42;2.30;;;2.17;;
65130;SDS011;51709;54.912;8.316;2022-08-19T15:15:02;3.85;;;2.33;;
65130;SDS011;51709;54.912;8.316;2022-08-19T15:20:23;2.67;;;2.42;;
65130;SDS011;51709;54.912;8.316;2022-08-19T15:25:44;2.88;;;2.13;;
65130;SDS011;51709;54.912;8.316;2022-08-19T15:31:05;2.28;;;2.17;;
65130;SDS011;51709;54.912;8.316;2022-08-19T15:36:26;2.30;;;2.20;;
65130;SDS011;51709;54.912;8.316;2022-08-19T15:41:46;2.15;;;2.05;;
65130;SDS011;51709;54.912;8.316;2022-08-19T15:47:07;3.65;;;2.60;;
65130;SDS011;51709;54.912;8.316;2022-08-19T15:52:28;3.90;;;2.63;;
65130;SDS011;51709;54.912;8.316;2022-08-19T15:57:48;3.28;;;2.63;;
65130;SDS011;51709;54.912;8.316;2022-08-19T16:03:41;4.15;;;3.13;;
65130;SDS011;51709;54.912;8.316;2022-08-19T16:09:21;3.42;;;3.13;;
65130;SDS011;51709;54.912;8.316;2022-08-19T16:14:46;5.03;;;2.72;;
65130;SDS011;51709;54.912;8.316;2022-08-19T16:20:08;5.97;;;3.03;;
65130;SDS011;51709;54.912;8.316;2022-08-19T16:25:30;7.95;;;3.63;;
65130;SDS011;51709;54.912;8.316;2022-08-19T16:30:50;5.85;;;3.65;;
65130;SDS011;51709;54.912;8.316;2022-08-19T16:36:11;4.97;;;3.33;;
65130;SDS011;51709;54.912;8.316;2022-08-19T16:41:32;3.08;;;2.80;;
65130;SDS011;51709;54.912;8.316;2022-08-19T16:46:53;3.83;;;3.47;;
65130;SDS011;51709;54.912;8.316;2022-08-19T16:52:18;4.38;;;4.00;;
65130;SDS011;51709;54.912;8.316;2022-08-19T17:01:36;6.80;;;3.28;;
65130;SDS011;51709;54.912;8.316;2022-08-19T17:06:57;4.68;;;3.78;;
65130;SDS011;51709;54.912;8.316;2022-08-19T17:12:17;4.82;;;4.00;;
65130;SDS011;51709;54.912;8.316;2022-08-19T17:17:38;8.35;;;4.70;;
65130;SDS011;51709;54.912;8.316;2022-08-19T17:22:59;6.25;;;4.00;;
65130;SDS011;51709;54.912;8.316;2022-08-19T17:28:25;4.88;;;4.38;;
65130;SDS011;51709;54.912;8.316;2022-08-19T17:33:48;4.93;;;3.85;;
65130;SDS011;51709;54.912;8.316;2022-08-19T17:39:09;6.07;;;5.07;;
65130;SDS011;51709;54.912;8.316;2022-08-19T17:44:30;7.82;;;4.80;;
65130;SDS011;51709;54.912;8.316;2022-08-19T17:49:52;7.30;;;5.05;;
65130;SDS011;51709;54.912;8.316;2022-08-19T17:55:13;5.82;;;5.32;;
65130;SDS011;51709;54.912;8.316;2022-08-19T18:00:34;6.82;;;4.45;;
65130;SDS011;51709;54.912;8.316;2022-08-19T18:05:55;10.23;;;5.65;;
65130;SDS011;51709;54.912;8.316;2022-08-19T18:11:16;12.32;;;5.65;;
65130;SDS011;51709;54.912;8.316;2022-08-19T18:16:36;7.47;;;5.45;;
65130;SDS011;51709;54.912;8.316;2022-08-19T18:21:58;18.33;;;7.22;;
65130;SDS011;51709;54.912;8.316;2022-08-19T18:27:19;7.43;;;5.90;;
65130;SDS011;51709;54.912;8.316;2022-08-19T18:32:40;13.27;;;6.55;;
65130;SDS011;51709;54.912;8.316;2022-08-19T18:38:03;7.65;;;6.60;;
65130;SDS011;51709;54.912;8.316;2022-08-19T18:43:46;8.95;;;7.05;;
65130;SDS011;51709;54.912;8.316;2022-08-19T18:49:32;7.47;;;6.65;;
65130;SDS011;51709;54.912;8.316;2022-08-19T18:54:54;6.78;;;5.88;;
65130;SDS011;51709;54.912;8.316;2022-08-19T19:00:15;8.55;;;6.22;;
65130;SDS011;51709;54.912;8.316;2022-08-19T19:05:36;14.25;;;7.50;;
65130;SDS011;51709;54.912;8.316;2022-08-19T19:10:57;9.80;;;8.80;;
65130;SDS011;51709;54.912;8.316;2022-08-19T19:16:24;15.38;;;9.50;;
65130;SDS011;51709;54.912;8.316;2022-08-19T19:21:45;13.10;;;10.07;;
65130;SDS011;51709;54.912;8.316;2022-08-19T19:27:08;22.77;;;12.02;;
65130;SDS011;51709;54.912;8.316;2022-08-19T19:32:30;18.20;;;12.93;;
65130;SDS011;51709;54.912;8.316;2022-08-19T19:37:58;22.05;;;13.02;;
65130;SDS011;51709;54.912;8.316;2022-08-19T19:43:19;24.77;;;14.05;;
65130;SDS011;51709;54.912;8.316;2022-08-19T19:48:39;26.20;;;14.68;;
65130;SDS011;51709;54.912;8.316;2022-08-19T19:54:00;28.02;;;16.30;;
65130;SDS011;51709;54.912;8.316;2022-08-19T19:59:21;25.05;;;14.43;;
65130;SDS011;51709;54.912;8.316;2022-08-19T20:04:42;24.15;;;15.15;;
65130;SDS011;51709;54.912;8.316;2022-08-19T20:10:03;32.45;;;16.63;;
65130;SDS011;51709;54.912;8.316;2022-08-19T20:15:24;30.60;;;15.25;;
65130;SDS011;51709;54.912;8.316;2022-08-19T20:20:45;24.27;;;15.82;;
65130;SDS011;51709;54.912;8.316;2022-08-19T20:26:09;18.20;;;13.60;;
65130;SDS011;51709;54.912;8.316;2022-08-19T20:31:49;19.17;;;14.02;;
65130;SDS011;51709;54.912;8.316;2022-08-19T20:37:18;17.77;;;12.55;;
65130;SDS011;51709;54.912;8.316;2022-08-19T20:42:40;21.45;;;12.88;;
65130;SDS011;51709;54.912;8.316;2022-08-19T20:48:02;18.25;;;11.18;;
65130;SDS011;51709;54.912;8.316;2022-08-19T20:53:24;19.88;;;13.20;;
65130;SDS011;51709;54.912;8.316;2022-08-19T20:58:46;21.17;;;12.70;;
65130;SDS011;51709;54.912;8.316;2022-08-19T21:04:13;24.58;;;12.77;;
65130;SDS011;51709;54.912;8.316;2022-08-19T21:09:34;24.48;;;12.60;;
65130;SDS011;51709;54.912;8.316;2022-08-19T21:14:55;20.83;;;11.70;;
65130;SDS011;51709;54.912;8.316;2022-08-19T21:20:15;24.60;;;12.48;;
65130;SDS011;51709;54.912;8.316;2022-08-19T21:25:36;15.18;;;10.38;;
65130;SDS011;51709;54.912;8.316;2022-08-19T21:30:57;18.13;;;8.98;;
65130;SDS011;51709;54.912;8.316;2022-08-19T21:36:19;11.57;;;7.07;;
65130;SDS011;51709;54.912;8.316;2022-08-19T21:41:40;11.80;;;7.55;;
65130;SDS011;51709;54.912;8.316;2022-08-19T21:47:03;14.27;;;7.25;;
65130;SDS011;51709;54.912;8.316;2022-08-19T21:52:28;21.17;;;8.50;;
65130;SDS011;51709;54.912;8.316;2022-08-19T21:57:48;15.57;;;8.02;;
65130;SDS011;51709;54.912;8.316;2022-08-19T22:03:09;5.50;;;3.90;;
65130;SDS011;51709;54.912;8.316;2022-08-19T22:08:29;3.13;;;2.90;;
65130;SDS011;51709;54.912;8.316;2022-08-19T22:13:51;4.32;;;2.90;;
65130;SDS011;51709;54.912;8.316;2022-08-19T22:19:13;4.63;;;3.00;;
65130;SDS011;51709;54.912;8.316;2022-08-19T22:24:33;5.85;;;2.63;;
65130;SDS011;51709;54.912;8.316;2022-08-19T22:29:54;3.55;;;2.80;;
65130;SDS011;51709;54.912;8.316;2022-08-19T22:35:15;4.00;;;3.50;;
65130;SDS011;51709;54.912;8.316;2022-08-19T22:40:44;4.97;;;3.28;;
65130;SDS011;51709;54.912;8.316;2022-08-19T22:46:06;4.20;;;3.28;;
65130;SDS011;51709;54.912;8.316;2022-08-19T22:51:36;11.57;;;3.47;;
65130;SDS011;51709;54.912;8.316;2022-08-19T22:57:16;4.53;;;3.50;;
65130;SDS011;51709;54.912;8.316;2022-08-19T23:02:40;4.30;;;3.90;;
65130;SDS011;51709;54.912;8.316;2022-08-19T23:08:12;6.63;;;3.88;;
65130;SDS011;51709;54.912;8.316;2022-08-19T23:13:32;3.65;;;3.35;;
65130;SDS011;51709;54.912;8.316;2022-08-19T23:18:53;6.22;;;3.65;;
65130;SDS011;51709;54.912;8.316;2022-08-19T23:24:15;4.70;;;4.20;;
65130;SDS011;51709;54.912;8.316;2022-08-19T23:29:36;5.53;;;4.07;;
65130;SDS011;51709;54.912;8.316;2022-08-19T23:35:15;5.68;;;4.25;;
65130;SDS011;51709;54.912;8.316;2022-08-19T23:40:36;4.03;;;3.67;;
65130;SDS011;51709;54.912;8.316;2022-08-19T23:45:58;5.05;;;3.78;;
65130;SDS011;51709;54.912;8.316;2022-08-19T23:51:20;4.82;;;4.25;;
65130;SDS011;51709;54.912;8.316;2022-08-19T23:56:40;4.65;;;4.18;;
